sensor_id;sensor_type;location;lat;lon;timestamp;pressure;altitude;pressure_sealevel;temperature
82411;BMP180;72054;55.772;49.096;2023-10-08T00:00:24;97620.00;;;9.00
82411;BMP180;72054;55.772;49.096;2023-10-08T00:01:46;97608.00;;;9.00
82411;BMP180;72054;55.772;49.096;2023-10-08T00:02:47;97576.00;;;9.00
82411;BMP180;72054;55.772;49.096;2023-10-08T00:03:48;97642.00;;;9.00
82411;BMP180;72054;55.772;49.096;2023-10-08T00:04:53;97513.00;;;9.00
82411;BMP180;72054;55.772;49.096;2023-10-08T00:05:57;97598.00;;;9.00
82411;BMP180;72054;55.772;49.096;2023-10-08T00:06:58;97533.00;;;9.00
82411;BMP180;72054;55.772;49.096;2023-10-08T00:07:59;97549.00;;;9.00
82411;BMP180;72054;55.772;49.096;2023-10-08T00:09:00;97569.00;;;9.00
82411;BMP180;72054;55.772;49.096;2023-10-08T00:10:04;97559.00;;;9.00
82411;BMP180;72054;55.772;49.096;2023-10-08T00:11:05;97595.00;;;9.00
82411;BMP180;72054;55.772;49.096;2023-10-08T00:12:10;97588.00;;;9.00
82411;BMP180;72054;55.772;49.096;2023-10-08T00:13:14;97574.00;;;8.90
82411;BMP180;72054;55.772;49.096;2023-10-08T00:14:18;97584.00;;;8.90
82411;BMP180;72054;55.772;49.096;2023-10-08T00:15:21;97567.00;;;9.00
82411;BMP180;72054;55.772;49.096;2023-10-08T00:16:25;97569.00;;;8.90
82411;BMP180;72054;55.772;49.096;2023-10-08T00:17:28;97573.00;;;8.90
82411;BMP180;72054;55.772;49.096;2023-10-08T00:18:29;97448.00;;;8.90
82411;BMP180;72054;55.772;49.096;2023-10-08T00:19:29;97545.00;;;8.90
82411;BMP180;72054;55.772;49.096;2023-10-08T00:20:36;97449.00;;;8.90
82411;BMP180;72054;55.772;49.096;2023-10-08T00:21:47;97387.00;;;8.90
82411;BMP180;72054;55.772;49.096;2023-10-08T00:22:49;97434.00;;;8.90
82411;BMP180;72054;55.772;49.096;2023-10-08T00:23:49;97555.00;;;8.90
82411;BMP180;72054;55.772;49.096;2023-10-08T00:24:53;97535.00;;;8.90
82411;BMP180;72054;55.772;49.096;2023-10-08T00:25:58;97473.00;;;8.90
82411;BMP180;72054;55.772;49.096;2023-10-08T00:27:04;97524.00;;;8.90
82411;BMP180;72054;55.772;49.096;2023-10-08T00:28:08;97539.00;;;8.90
82411;BMP180;72054;55.772;49.096;2023-10-08T00:29:11;97535.00;;;8.70
82411;BMP180;72054;55.772;49.096;2023-10-08T00:30:21;97557.00;;;8.90
82411;BMP180;72054;55.772;49.096;2023-10-08T00:31:22;97473.00;;;8.90
82411;BMP180;72054;55.772;49.096;2023-10-08T00:32:26;97527.00;;;8.80
82411;BMP180;72054;55.772;49.096;2023-10-08T00:33:26;97487.00;;;8.80
82411;BMP180;72054;55.772;49.096;2023-10-08T00:34:27;97495.00;;;8.80
82411;BMP180;72054;55.772;49.096;2023-10-08T00:35:27;97510.00;;;8.80
82411;BMP180;72054;55.772;49.096;2023-10-08T00:36:28;97420.00;;;8.80
82411;BMP180;72054;55.772;49.096;2023-10-08T00:37:28;97509.00;;;8.80
82411;BMP180;72054;55.772;49.096;2023-10-08T00:38:29;97414.00;;;8.80
82411;BMP180;72054;55.772;49.096;2023-10-08T00:39:32;97477.00;;;8.70
82411;BMP180;72054;55.772;49.096;2023-10-08T00:40:38;97446.00;;;8.70
82411;BMP180;72054;55.772;49.096;2023-10-08T00:41:46;97489.00;;;8.40
82411;BMP180;72054;55.772;49.096;2023-10-08T00:42:47;97482.00;;;8.70
82411;BMP180;72054;55.772;49.096;2023-10-08T00:43:49;97498.00;;;8.70
82411;BMP180;72054;55.772;49.096;2023-10-08T00:44:51;97454.00;;;8.80
82411;BMP180;72054;55.772;49.096;2023-10-08T00:45:51;97400.00;;;8.80
82411;BMP180;72054;55.772;49.096;2023-10-08T00:46:52;97483.00;;;8.80
82411;BMP180;72054;55.772;49.096;2023-10-08T00:47:56;97493.00;;;8.80
82411;BMP180;72054;55.772;49.096;2023-10-08T00:49:00;97484.00;;;8.80
82411;BMP180;72054;55.772;49.096;2023-10-08T00:50:19;97422.00;;;8.80
82411;BMP180;72054;55.772;49.096;2023-10-08T00:51:23;97365.00;;;8.80
82411;BMP180;72054;55.772;49.096;2023-10-08T00:52:24;97405.00;;;8.80
82411;BMP180;72054;55.772;49.096;2023-10-08T00:53:30;97431.00;;;8.80
82411;BMP180;72054;55.772;49.096;2023-10-08T00:54:40;97477.00;;;8.80
82411;BMP180;72054;55.772;49.096;2023-10-08T00:55:59;97461.00;;;8.70
82411;BMP180;72054;55.772;49.096;2023-10-08T00:57:06;97459.00;;;8.80
82411;BMP180;72054;55.772;49.096;2023-10-08T00:58:07;97332.00;;;8.70
82411;BMP180;72054;55.772;49.096;2023-10-08T00:59:24;97450.00;;;8.70
82411;BMP180;72054;55.772;49.096;2023-10-08T01:00:25;97428.00;;;8.60
82411;BMP180;72054;55.772;49.096;2023-10-08T01:01:33;97449.00;;;8.60
82411;BMP180;72054;55.772;49.096;2023-10-08T01:02:35;97443.00;;;8.60
82411;BMP180;72054;55.772;49.096;2023-10-08T01:03:44;97444.00;;;8.60
82411;BMP180;72054;55.772;49.096;2023-10-08T01:04:45;97413.00;;;8.60
82411;BMP180;72054;55.772;49.096;2023-10-08T01:05:46;97426.00;;;8.60
82411;BMP180;72054;55.772;49.096;2023-10-08T01:06:51;97441.00;;;8.60
82411;BMP180;72054;55.772;49.096;2023-10-08T01:07:56;97332.00;;;8.60
82411;BMP180;72054;55.772;49.096;2023-10-08T01:08:59;97354.00;;;8.20
82411;BMP180;72054;55.772;49.096;2023-10-08T01:10:08;97378.00;;;8.60
82411;BMP180;72054;55.772;49.096;2023-10-08T01:11:23;97423.00;;;8.60
82411;BMP180;72054;55.772;49.096;2023-10-08T01:12:49;97429.00;;;8.50
82411;BMP180;72054;55.772;49.096;2023-10-08T01:14:02;97407.00;;;8.60
82411;BMP180;72054;55.772;49.096;2023-10-08T01:15:07;97369.00;;;8.50
82411;BMP180;72054;55.772;49.096;2023-10-08T01:16:16;97309.00;;;8.50
82411;BMP180;72054;55.772;49.096;2023-10-08T01:17:19;97356.00;;;8.50
82411;BMP180;72054;55.772;49.096;2023-10-08T01:18:24;97386.00;;;8.50
82411;BMP180;72054;55.772;49.096;2023-10-08T01:19:32;97387.00;;;8.40
82411;BMP180;72054;55.772;49.096;2023-10-08T01:20:35;97356.00;;;8.40
82411;BMP180;72054;55.772;49.096;2023-10-08T01:21:36;97284.00;;;8.40
82411;BMP180;72054;55.772;49.096;2023-10-08T01:22:39;97241.00;;;8.40
82411;BMP180;72054;55.772;49.096;2023-10-08T01:23:41;97241.00;;;8.40
82411;BMP180;72054;55.772;49.096;2023-10-08T01:24:41;97276.00;;;8.30
82411;BMP180;72054;55.772;49.096;2023-10-08T01:25:43;97314.00;;;8.30
82411;BMP180;72054;55.772;49.096;2023-10-08T01:26:50;97317.00;;;8.30
82411;BMP180;72054;55.772;49.096;2023-10-08T01:27:57;97351.00;;;8.30
82411;BMP180;72054;55.772;49.096;2023-10-08T01:29:30;97264.00;;;8.30
82411;BMP180;72054;55.772;49.096;2023-10-08T01:30:31;97365.00;;;8.30
82411;BMP180;72054;55.772;49.096;2023-10-08T01:31:36;97375.00;;;8.20
82411;BMP180;72054;55.772;49.096;2023-10-08T01:32:37;97245.00;;;8.20
82411;BMP180;72054;55.772;49.096;2023-10-08T01:33:37;97303.00;;;8.20
82411;BMP180;72054;55.772;49.096;2023-10-08T01:34:39;97351.00;;;8.20
82411;BMP180;72054;55.772;49.096;2023-10-08T01:35:40;97354.00;;;8.00
82411;BMP180;72054;55.772;49.096;2023-10-08T01:36:41;97269.00;;;8.20
82411;BMP180;72054;55.772;49.096;2023-10-08T01:37:44;97266.00;;;8.20
82411;BMP180;72054;55.772;49.096;2023-10-08T01:38:48;97265.00;;;8.20
82411;BMP180;72054;55.772;49.096;2023-10-08T01:39:48;97311.00;;;8.20
82411;BMP180;72054;55.772;49.096;2023-10-08T01:40:52;97325.00;;;8.20
82411;BMP180;72054;55.772;49.096;2023-10-08T01:41:52;97268.00;;;8.20
82411;BMP180;72054;55.772;49.096;2023-10-08T01:42:53;97319.00;;;8.20
82411;BMP180;72054;55.772;49.096;2023-10-08T01:43:53;97288.00;;;8.20
82411;BMP180;72054;55.772;49.096;2023-10-08T01:44:53;97249.00;;;8.20
82411;BMP180;72054;55.772;49.096;2023-10-08T01:45:58;97289.00;;;8.20
82411;BMP180;72054;55.772;49.096;2023-10-08T01:46:58;97263.00;;;8.20
82411;BMP180;72054;55.772;49.096;2023-10-08T01:47:59;97299.00;;;8.20
82411;BMP180;72054;55.772;49.096;2023-10-08T01:49:00;97234.00;;;8.20
82411;BMP180;72054;55.772;49.096;2023-10-08T01:50:05;97233.00;;;8.20
82411;BMP180;72054;55.772;49.096;2023-10-08T01:51:06;97232.00;;;8.30
82411;BMP180;72054;55.772;49.096;2023-10-08T01:52:12;97162.00;;;8.30
82411;BMP180;72054;55.772;49.096;2023-10-08T01:53:21;97296.00;;;8.30
82411;BMP180;72054;55.772;49.096;2023-10-08T01:54:22;97265.00;;;8.30
82411;BMP180;72054;55.772;49.096;2023-10-08T01:55:26;97282.00;;;8.30
82411;BMP180;72054;55.772;49.096;2023-10-08T01:56:26;97235.00;;;8.30
82411;BMP180;72054;55.772;49.096;2023-10-08T01:57:27;97211.00;;;8.30
82411;BMP180;72054;55.772;49.096;2023-10-08T01:58:27;97228.00;;;8.30
82411;BMP180;72054;55.772;49.096;2023-10-08T01:59:31;97219.00;;;8.30
82411;BMP180;72054;55.772;49.096;2023-10-08T02:00:31;97241.00;;;8.30
82411;BMP180;72054;55.772;49.096;2023-10-08T02:01:32;97202.00;;;8.30
82411;BMP180;72054;55.772;49.096;2023-10-08T02:02:32;97201.00;;;8.30
82411;BMP180;72054;55.772;49.096;2023-10-08T02:03:34;97226.00;;;8.30
82411;BMP180;72054;55.772;49.096;2023-10-08T02:04:34;97243.00;;;8.40
82411;BMP180;72054;55.772;49.096;2023-10-08T02:05:38;97239.00;;;8.40
82411;BMP180;72054;55.772;49.096;2023-10-08T02:06:42;97194.00;;;8.40
82411;BMP180;72054;55.772;49.096;2023-10-08T02:07:43;97206.00;;;8.40
82411;BMP180;72054;55.772;49.096;2023-10-08T02:08:44;97242.00;;;8.40
82411;BMP180;72054;55.772;49.096;2023-10-08T02:09:45;97249.00;;;8.40
82411;BMP180;72054;55.772;49.096;2023-10-08T02:10:45;97235.00;;;8.40
82411;BMP180;72054;55.772;49.096;2023-10-08T02:11:48;97171.00;;;8.40
82411;BMP180;72054;55.772;49.096;2023-10-08T02:12:53;97204.00;;;8.40
82411;BMP180;72054;55.772;49.096;2023-10-08T02:13:54;97192.00;;;8.40
82411;BMP180;72054;55.772;49.096;2023-10-08T02:14:54;97211.00;;;8.40
82411;BMP180;72054;55.772;49.096;2023-10-08T02:15:55;97177.00;;;8.40
82411;BMP180;72054;55.772;49.096;2023-10-08T02:16:55;97196.00;;;8.40
82411;BMP180;72054;55.772;49.096;2023-10-08T02:17:56;97202.00;;;8.50
82411;BMP180;72054;55.772;49.096;2023-10-08T02:18:58;97206.00;;;8.50
82411;BMP180;72054;55.772;49.096;2023-10-08T02:20:00;97115.00;;;8.50
82411;BMP180;72054;55.772;49.096;2023-10-08T02:21:05;97203.00;;;8.50
82411;BMP180;72054;55.772;49.096;2023-10-08T02:22:05;97063.00;;;8.50
82411;BMP180;72054;55.772;49.096;2023-10-08T02:23:09;97186.00;;;8.50
82411;BMP180;72054;55.772;49.096;2023-10-08T02:24:12;97160.00;;;8.50
82411;BMP180;72054;55.772;49.096;2023-10-08T02:25:13;97114.00;;;8.50
82411;BMP180;72054;55.772;49.096;2023-10-08T02:26:14;97178.00;;;8.50
82411;BMP180;72054;55.772;49.096;2023-10-08T02:27:15;97167.00;;;8.50
82411;BMP180;72054;55.772;49.096;2023-10-08T02:28:15;97033.00;;;8.50
82411;BMP180;72054;55.772;49.096;2023-10-08T02:29:16;97167.00;;;8.50
82411;BMP180;72054;55.772;49.096;2023-10-08T02:30:16;97165.00;;;8.50
82411;BMP180;72054;55.772;49.096;2023-10-08T02:31:18;97096.00;;;8.50
82411;BMP180;72054;55.772;49.096;2023-10-08T02:32:18;97076.00;;;8.50
82411;BMP180;72054;55.772;49.096;2023-10-08T02:33:19;97133.00;;;8.50
82411;BMP180;72054;55.772;49.096;2023-10-08T02:34:20;97151.00;;;8.50
82411;BMP180;72054;55.772;49.096;2023-10-08T02:35:20;97071.00;;;8.50
82411;BMP180;72054;55.772;49.096;2023-10-08T02:36:22;97144.00;;;8.50
82411;BMP180;72054;55.772;49.096;2023-10-08T02:37:23;97077.00;;;8.50
82411;BMP180;72054;55.772;49.096;2023-10-08T02:38:23;96948.00;;;8.50
82411;BMP180;72054;55.772;49.096;2023-10-08T02:39:24;97133.00;;;8.50
82411;BMP180;72054;55.772;49.096;2023-10-08T02:40:27;97128.00;;;8.50
82411;BMP180;72054;55.772;49.096;2023-10-08T02:41:28;97065.00;;;8.50
82411;BMP180;72054;55.772;49.096;2023-10-08T02:42:29;97079.00;;;8.50
82411;BMP180;72054;55.772;49.096;2023-10-08T02:43:29;97112.00;;;8.50
82411;BMP180;72054;55.772;49.096;2023-10-08T02:44:30;97049.00;;;8.50
82411;BMP180;72054;55.772;49.096;2023-10-08T02:45:31;97033.00;;;8.50
82411;BMP180;72054;55.772;49.096;2023-10-08T02:46:31;97108.00;;;8.60
82411;BMP180;72054;55.772;49.096;2023-10-08T02:47:33;97076.00;;;8.60
82411;BMP180;72054;55.772;49.096;2023-10-08T02:48:34;97100.00;;;8.60
82411;BMP180;72054;55.772;49.096;2023-10-08T02:49:35;97079.00;;;8.60
82411;BMP180;72054;55.772;49.096;2023-10-08T02:50:36;97087.00;;;8.60
82411;BMP180;72054;55.772;49.096;2023-10-08T02:51:40;97112.00;;;8.60
82411;BMP180;72054;55.772;49.096;2023-10-08T02:52:41;97054.00;;;8.60
82411;BMP180;72054;55.772;49.096;2023-10-08T02:53:42;97040.00;;;8.60
82411;BMP180;72054;55.772;49.096;2023-10-08T02:54:44;97095.00;;;8.60
82411;BMP180;72054;55.772;49.096;2023-10-08T02:55:45;97019.00;;;8.60
82411;BMP180;72054;55.772;49.096;2023-10-08T02:56:51;97085.00;;;8.60
82411;BMP180;72054;55.772;49.096;2023-10-08T02:57:52;97057.00;;;8.60
82411;BMP180;72054;55.772;49.096;2023-10-08T02:58:52;97069.00;;;8.60
82411;BMP180;72054;55.772;49.096;2023-10-08T02:59:55;97019.00;;;8.60
82411;BMP180;72054;55.772;49.096;2023-10-08T03:00:55;97082.00;;;8.60
82411;BMP180;72054;55.772;49.096;2023-10-08T03:01:56;97055.00;;;8.60
82411;BMP180;72054;55.772;49.096;2023-10-08T03:02:57;97085.00;;;8.60
82411;BMP180;72054;55.772;49.096;2023-10-08T03:03:58;97072.00;;;8.60
82411;BMP180;72054;55.772;49.096;2023-10-08T03:05:04;97033.00;;;8.60
82411;BMP180;72054;55.772;49.096;2023-10-08T03:06:08;97051.00;;;8.40
82411;BMP180;72054;55.772;49.096;2023-10-08T03:07:15;97068.00;;;8.60
82411;BMP180;72054;55.772;49.096;2023-10-08T03:08:36;97028.00;;;8.60
82411;BMP180;72054;55.772;49.096;2023-10-08T03:09:37;97008.00;;;8.30
82411;BMP180;72054;55.772;49.096;2023-10-08T03:10:42;97049.00;;;8.60
82411;BMP180;72054;55.772;49.096;2023-10-08T03:11:44;97023.00;;;8.60
82411;BMP180;72054;55.772;49.096;2023-10-08T03:12:47;97030.00;;;8.60
82411;BMP180;72054;55.772;49.096;2023-10-08T03:13:48;97045.00;;;8.60
82411;BMP180;72054;55.772;49.096;2023-10-08T03:14:51;96923.00;;;8.60
82411;BMP180;72054;55.772;49.096;2023-10-08T03:16:15;97049.00;;;8.60
82411;BMP180;72054;55.772;49.096;2023-10-08T03:17:15;97031.00;;;8.60
82411;BMP180;72054;55.772;49.096;2023-10-08T03:18:20;97042.00;;;8.60
82411;BMP180;72054;55.772;49.096;2023-10-08T03:19:22;97010.00;;;8.60
82411;BMP180;72054;55.772;49.096;2023-10-08T03:20:23;96950.00;;;8.60
82411;BMP180;72054;55.772;49.096;2023-10-08T03:21:50;96933.00;;;8.60
82411;BMP180;72054;55.772;49.096;2023-10-08T03:22:57;96987.00;;;8.60
82411;BMP180;72054;55.772;49.096;2023-10-08T03:23:57;96952.00;;;8.60
82411;BMP180;72054;55.772;49.096;2023-10-08T03:24:58;96938.00;;;8.60
82411;BMP180;72054;55.772;49.096;2023-10-08T03:26:14;96989.00;;;8.60
82411;BMP180;72054;55.772;49.096;2023-10-08T03:27:32;96984.00;;;8.70
82411;BMP180;72054;55.772;49.096;2023-10-08T03:28:41;97018.00;;;8.70
82411;BMP180;72054;55.772;49.096;2023-10-08T03:29:42;96933.00;;;8.60
82411;BMP180;72054;55.772;49.096;2023-10-08T03:30:42;97011.00;;;8.70
82411;BMP180;72054;55.772;49.096;2023-10-08T03:31:56;96984.00;;;8.60
82411;BMP180;72054;55.772;49.096;2023-10-08T03:32:56;96927.00;;;8.30
82411;BMP180;72054;55.772;49.096;2023-10-08T03:33:57;96996.00;;;8.60
82411;BMP180;72054;55.772;49.096;2023-10-08T03:34:58;96991.00;;;8.60
82411;BMP180;72054;55.772;49.096;2023-10-08T03:36:02;96987.00;;;8.60
82411;BMP180;72054;55.772;49.096;2023-10-08T03:37:22;96924.00;;;8.60
82411;BMP180;72054;55.772;49.096;2023-10-08T03:38:29;96962.00;;;8.60
82411;BMP180;72054;55.772;49.096;2023-10-08T03:39:47;96982.00;;;8.70
82411;BMP180;72054;55.772;49.096;2023-10-08T03:41:06;96888.00;;;8.60
82411;BMP180;72054;55.772;49.096;2023-10-08T03:42:09;96923.00;;;8.60
82411;BMP180;72054;55.772;49.096;2023-10-08T03:43:12;96943.00;;;8.60
82411;BMP180;72054;55.772;49.096;2023-10-08T03:44:34;96868.00;;;8.60
82411;BMP180;72054;55.772;49.096;2023-10-08T03:45:37;96968.00;;;8.60
82411;BMP180;72054;55.772;49.096;2023-10-08T03:46:59;96925.00;;;8.50
82411;BMP180;72054;55.772;49.096;2023-10-08T03:48:00;96920.00;;;8.60
82411;BMP180;72054;55.772;49.096;2023-10-08T03:49:14;96966.00;;;8.60
82411;BMP180;72054;55.772;49.096;2023-10-08T03:50:21;96901.00;;;8.60
82411;BMP180;72054;55.772;49.096;2023-10-08T03:51:32;96859.00;;;8.60
82411;BMP180;72054;55.772;49.096;2023-10-08T03:52:39;96878.00;;;8.60
82411;BMP180;72054;55.772;49.096;2023-10-08T03:53:40;96948.00;;;8.60
82411;BMP180;72054;55.772;49.096;2023-10-08T03:54:59;96944.00;;;8.70
82411;BMP180;72054;55.772;49.096;2023-10-08T03:56:13;96955.00;;;8.70
82411;BMP180;72054;55.772;49.096;2023-10-08T03:57:14;96914.00;;;8.70
82411;BMP180;72054;55.772;49.096;2023-10-08T03:58:19;96955.00;;;8.60
82411;BMP180;72054;55.772;49.096;2023-10-08T03:59:29;96922.00;;;8.70
82411;BMP180;72054;55.772;49.096;2023-10-08T04:00:30;96841.00;;;8.60
82411;BMP180;72054;55.772;49.096;2023-10-08T04:01:32;96845.00;;;8.70
82411;BMP180;72054;55.772;49.096;2023-10-08T04:02:34;96927.00;;;8.60
82411;BMP180;72054;55.772;49.096;2023-10-08T04:03:54;96934.00;;;8.70
82411;BMP180;72054;55.772;49.096;2023-10-08T04:04:58;96894.00;;;8.70
82411;BMP180;72054;55.772;49.096;2023-10-08T04:05:59;96919.00;;;8.80
82411;BMP180;72054;55.772;49.096;2023-10-08T04:07:18;96893.00;;;8.70
82411;BMP180;72054;55.772;49.096;2023-10-08T04:08:31;96917.00;;;8.70
82411;BMP180;72054;55.772;49.096;2023-10-08T04:09:42;96916.00;;;8.70
82411;BMP180;72054;55.772;49.096;2023-10-08T04:10:43;96888.00;;;8.70
82411;BMP180;72054;55.772;49.096;2023-10-08T04:11:44;96905.00;;;8.70
82411;BMP180;72054;55.772;49.096;2023-10-08T04:12:54;96910.00;;;8.70
82411;BMP180;72054;55.772;49.096;2023-10-08T04:13:54;96908.00;;;8.70
82411;BMP180;72054;55.772;49.096;2023-10-08T04:14:55;96899.00;;;8.70
82411;BMP180;72054;55.772;49.096;2023-10-08T04:15:56;96921.00;;;8.70
82411;BMP180;72054;55.772;49.096;2023-10-08T04:16:56;96893.00;;;8.70
82411;BMP180;72054;55.772;49.096;2023-10-08T04:17:59;96864.00;;;8.70
82411;BMP180;72054;55.772;49.096;2023-10-08T04:19:03;96882.00;;;8.80
82411;BMP180;72054;55.772;49.096;2023-10-08T04:20:07;96872.00;;;8.80
82411;BMP180;72054;55.772;49.096;2023-10-08T04:21:27;96864.00;;;8.80
82411;BMP180;72054;55.772;49.096;2023-10-08T04:22:28;96869.00;;;8.80
82411;BMP180;72054;55.772;49.096;2023-10-08T04:23:29;96882.00;;;8.80
82411;BMP180;72054;55.772;49.096;2023-10-08T04:24:30;96867.00;;;8.80
82411;BMP180;72054;55.772;49.096;2023-10-08T04:25:35;96867.00;;;8.80
82411;BMP180;72054;55.772;49.096;2023-10-08T04:26:35;96839.00;;;8.80
82411;BMP180;72054;55.772;49.096;2023-10-08T04:27:36;96862.00;;;8.90
82411;BMP180;72054;55.772;49.096;2023-10-08T04:28:36;96820.00;;;8.90
82411;BMP180;72054;55.772;49.096;2023-10-08T04:29:37;96715.00;;;8.90
82411;BMP180;72054;55.772;49.096;2023-10-08T04:30:38;96861.00;;;8.90
82411;BMP180;72054;55.772;49.096;2023-10-08T04:31:41;96856.00;;;9.00
82411;BMP180;72054;55.772;49.096;2023-10-08T04:32:46;96797.00;;;9.00
82411;BMP180;72054;55.772;49.096;2023-10-08T04:33:47;96845.00;;;9.00
82411;BMP180;72054;55.772;49.096;2023-10-08T04:34:48;96836.00;;;9.00
82411;BMP180;72054;55.772;49.096;2023-10-08T04:35:50;96783.00;;;9.00
82411;BMP180;72054;55.772;49.096;2023-10-08T04:36:56;96841.00;;;9.00
82411;BMP180;72054;55.772;49.096;2023-10-08T04:38:01;96841.00;;;9.00
82411;BMP180;72054;55.772;49.096;2023-10-08T04:39:04;96818.00;;;9.00
82411;BMP180;72054;55.772;49.096;2023-10-08T04:40:14;96844.00;;;9.10
82411;BMP180;72054;55.772;49.096;2023-10-08T04:41:16;96791.00;;;9.10
82411;BMP180;72054;55.772;49.096;2023-10-08T04:42:19;96834.00;;;9.10
82411;BMP180;72054;55.772;49.096;2023-10-08T04:43:26;96829.00;;;9.10
82411;BMP180;72054;55.772;49.096;2023-10-08T04:44:27;96825.00;;;9.10
82411;BMP180;72054;55.772;49.096;2023-10-08T04:45:32;96765.00;;;9.10
82411;BMP180;72054;55.772;49.096;2023-10-08T04:46:34;96804.00;;;9.20
82411;BMP180;72054;55.772;49.096;2023-10-08T04:47:55;96825.00;;;9.20
82411;BMP180;72054;55.772;49.096;2023-10-08T04:48:59;96780.00;;;9.20
82411;BMP180;72054;55.772;49.096;2023-10-08T04:49:59;96821.00;;;9.20
82411;BMP180;72054;55.772;49.096;2023-10-08T04:51:00;96825.00;;;9.30
82411;BMP180;72054;55.772;49.096;2023-10-08T04:52:04;96819.00;;;9.40
82411;BMP180;72054;55.772;49.096;2023-10-08T04:53:14;96816.00;;;9.40
82411;BMP180;72054;55.772;49.096;2023-10-08T04:54:16;96783.00;;;9.40
82411;BMP180;72054;55.772;49.096;2023-10-08T04:55:16;96800.00;;;9.40
82411;BMP180;72054;55.772;49.096;2023-10-08T04:56:20;96808.00;;;9.40
82411;BMP180;72054;55.772;49.096;2023-10-08T04:57:23;96780.00;;;9.40
82411;BMP180;72054;55.772;49.096;2023-10-08T04:58:25;96793.00;;;9.40
82411;BMP180;72054;55.772;49.096;2023-10-08T04:59:33;96677.00;;;9.40
82411;BMP180;72054;55.772;49.096;2023-10-08T05:00:34;96794.00;;;9.40
82411;BMP180;72054;55.772;49.096;2023-10-08T05:01:43;96766.00;;;9.50
82411;BMP180;72054;55.772;49.096;2023-10-08T05:03:09;96771.00;;;9.50
82411;BMP180;72054;55.772;49.096;2023-10-08T05:04:16;96783.00;;;9.50
82411;BMP180;72054;55.772;49.096;2023-10-08T05:05:47;96718.00;;;9.60
82411;BMP180;72054;55.772;49.096;2023-10-08T05:07:06;96779.00;;;9.60
82411;BMP180;72054;55.772;49.096;2023-10-08T05:08:27;96742.00;;;9.60
82411;BMP180;72054;55.772;49.096;2023-10-08T05:09:48;96733.00;;;9.60
82411;BMP180;72054;55.772;49.096;2023-10-08T05:11:03;96779.00;;;9.60
82411;BMP180;72054;55.772;49.096;2023-10-08T05:12:25;96774.00;;;9.60
82411;BMP180;72054;55.772;49.096;2023-10-08T05:13:34;96767.00;;;9.60
82411;BMP180;72054;55.772;49.096;2023-10-08T05:14:45;96753.00;;;9.60
82411;BMP180;72054;55.772;49.096;2023-10-08T05:16:04;96766.00;;;9.60
82411;BMP180;72054;55.772;49.096;2023-10-08T05:17:33;96746.00;;;9.60
82411;BMP180;72054;55.772;49.096;2023-10-08T05:18:46;96767.00;;;9.60
82411;BMP180;72054;55.772;49.096;2023-10-08T05:20:14;96751.00;;;9.60
82411;BMP180;72054;55.772;49.096;2023-10-08T05:21:30;96763.00;;;9.60
82411;BMP180;72054;55.772;49.096;2023-10-08T05:22:50;96741.00;;;9.70
82411;BMP180;72054;55.772;49.096;2023-10-08T05:23:56;96741.00;;;9.60
82411;BMP180;72054;55.772;49.096;2023-10-08T05:25:14;96743.00;;;9.70
82411;BMP180;72054;55.772;49.096;2023-10-08T05:26:17;96729.00;;;9.70
82411;BMP180;72054;55.772;49.096;2023-10-08T05:27:32;96733.00;;;9.70
82411;BMP180;72054;55.772;49.096;2023-10-08T05:28:48;96739.00;;;9.70
82411;BMP180;72054;55.772;49.096;2023-10-08T05:30:03;96721.00;;;9.70
82411;BMP180;72054;55.772;49.096;2023-10-08T05:31:16;96716.00;;;9.70
82411;BMP180;72054;55.772;49.096;2023-10-08T05:32:16;96744.00;;;9.70
82411;BMP180;72054;55.772;49.096;2023-10-08T05:33:35;96677.00;;;9.70
82411;BMP180;72054;55.772;49.096;2023-10-08T05:34:55;96717.00;;;9.80
82411;BMP180;72054;55.772;49.096;2023-10-08T05:36:18;96716.00;;;9.80
82411;BMP180;72054;55.772;49.096;2023-10-08T05:37:27;96730.00;;;9.80
82411;BMP180;72054;55.772;49.096;2023-10-08T05:38:42;96726.00;;;9.80
82411;BMP180;72054;55.772;49.096;2023-10-08T05:39:49;96722.00;;;9.90
82411;BMP180;72054;55.772;49.096;2023-10-08T05:40:57;96661.00;;;9.70
82411;BMP180;72054;55.772;49.096;2023-10-08T05:42:09;96664.00;;;9.90
82411;BMP180;72054;55.772;49.096;2023-10-08T05:43:42;96698.00;;;10.00
82411;BMP180;72054;55.772;49.096;2023-10-08T05:44:44;96559.00;;;10.00
82411;BMP180;72054;55.772;49.096;2023-10-08T05:46:13;96662.00;;;10.00
82411;BMP180;72054;55.772;49.096;2023-10-08T05:47:22;96729.00;;;10.00
82411;BMP180;72054;55.772;49.096;2023-10-08T05:48:38;96713.00;;;9.90
82411;BMP180;72054;55.772;49.096;2023-10-08T05:49:45;96710.00;;;9.90
82411;BMP180;72054;55.772;49.096;2023-10-08T05:51:14;96690.00;;;9.90
82411;BMP180;72054;55.772;49.096;2023-10-08T05:52:34;96731.00;;;9.90
82411;BMP180;72054;55.772;49.096;2023-10-08T05:53:52;96722.00;;;10.00
82411;BMP180;72054;55.772;49.096;2023-10-08T05:54:56;96711.00;;;10.00
82411;BMP180;72054;55.772;49.096;2023-10-08T05:56:15;96747.00;;;10.00
82411;BMP180;72054;55.772;49.096;2023-10-08T05:57:28;96554.00;;;10.00
82411;BMP180;72054;55.772;49.096;2023-10-08T05:58:46;96711.00;;;9.90
82411;BMP180;72054;55.772;49.096;2023-10-08T06:00:00;96716.00;;;10.00
82411;BMP180;72054;55.772;49.096;2023-10-08T06:01:01;96637.00;;;10.00
82411;BMP180;72054;55.772;49.096;2023-10-08T06:02:08;96708.00;;;10.00
82411;BMP180;72054;55.772;49.096;2023-10-08T06:03:28;96671.00;;;10.10
82411;BMP180;72054;55.772;49.096;2023-10-08T06:04:46;96709.00;;;10.10
82411;BMP180;72054;55.772;49.096;2023-10-08T06:06:07;96725.00;;;10.20
82411;BMP180;72054;55.772;49.096;2023-10-08T06:07:28;96734.00;;;10.30
82411;BMP180;72054;55.772;49.096;2023-10-08T06:08:48;96721.00;;;10.40
82411;BMP180;72054;55.772;49.096;2023-10-08T06:10:07;96729.00;;;10.40
82411;BMP180;72054;55.772;49.096;2023-10-08T06:11:26;96726.00;;;10.50
82411;BMP180;72054;55.772;49.096;2023-10-08T06:13:03;96730.00;;;10.60
82411;BMP180;72054;55.772;49.096;2023-10-08T06:14:10;96741.00;;;10.60
82411;BMP180;72054;55.772;49.096;2023-10-08T06:15:17;96721.00;;;10.60
82411;BMP180;72054;55.772;49.096;2023-10-08T06:16:27;96746.00;;;10.70
82411;BMP180;72054;55.772;49.096;2023-10-08T06:17:41;96734.00;;;10.80
82411;BMP180;72054;55.772;49.096;2023-10-08T06:19:04;96723.00;;;10.80
82411;BMP180;72054;55.772;49.096;2023-10-08T06:20:05;96731.00;;;10.90
82411;BMP180;72054;55.772;49.096;2023-10-08T06:21:10;96731.00;;;10.90
82411;BMP180;72054;55.772;49.096;2023-10-08T06:22:11;96722.00;;;10.90